createdAt,value
2022-09-30T00:00:41.432Z,1.92
2022-09-30T00:03:08.159Z,2.55
2022-09-30T00:05:34.630Z,2.75
2022-09-30T00:08:01.336Z,0.70
2022-09-30T00:10:27.804Z,1.85
2022-09-30T00:12:54.276Z,1.63
2022-09-30T00:15:21.781Z,1.38
2022-09-30T00:17:48.240Z,1.50
2022-09-30T00:20:14.880Z,1.10
2022-09-30T00:22:41.530Z,1.85
2022-09-30T00:25:08.143Z,1.90
2022-09-30T00:27:34.588Z,1.92
2022-09-30T00:30:01.403Z,1.17
2022-09-30T00:32:28.096Z,1.95
2022-09-30T00:34:54.572Z,1.27
2022-09-30T00:37:21.067Z,1.30
2022-09-30T00:39:47.944Z,0.73
2022-09-30T00:42:14.717Z,0.85
2022-09-30T00:44:52.167Z,1.10
2022-09-30T00:47:30.477Z,1.58
2022-09-30T00:49:59.035Z,0.88
2022-09-30T00:52:26.471Z,0.90
2022-09-30T00:54:53.535Z,1.05
2022-09-30T00:57:19.979Z,0.98
2022-09-30T00:59:47.798Z,1.10
2022-09-30T01:02:14.742Z,0.90
2022-09-30T01:04:41.404Z,1.10
2022-09-30T01:07:08.365Z,1.73
2022-09-30T01:09:39.723Z,0.98
2022-09-30T01:12:26.442Z,1.20
2022-09-30T01:14:53.545Z,0.40
2022-09-30T01:17:47.944Z,1.95
2022-09-30T01:20:27.139Z,1.23
2022-09-30T01:23:08.270Z,0.50
2022-09-30T01:25:47.020Z,1.55
2022-09-30T01:28:42.072Z,0.73
2022-09-30T01:31:22.210Z,0.40
2022-09-30T01:34:10.326Z,1.15
2022-09-30T01:36:47.369Z,1.08
2022-09-30T01:39:26.899Z,0.70
2022-09-30T01:42:10.088Z,2.30
2022-09-30T01:45:03.051Z,1.20
2022-09-30T01:48:03.723Z,1.15
2022-09-30T01:50:46.907Z,1.45
2022-09-30T01:53:25.127Z,0.95
2022-09-30T01:56:04.006Z,1.20
2022-09-30T01:58:41.426Z,0.73
2022-09-30T02:01:10.586Z,0.50
2022-09-30T02:03:45.517Z,0.85
2022-09-30T02:06:14.803Z,0.70
2022-09-30T02:08:45.038Z,0.65
2022-09-30T02:11:18.265Z,1.08
2022-09-30T02:14:01.984Z,1.30
2022-09-30T02:16:32.497Z,0.70
2022-09-30T02:19:03.082Z,0.63
2022-09-30T02:21:34.445Z,0.55
2022-09-30T02:24:05.626Z,1.55
2022-09-30T02:26:34.713Z,0.70
2022-09-30T02:29:03.943Z,1.00
2022-09-30T02:31:32.297Z,0.90
2022-09-30T02:34:02.509Z,0.50
2022-09-30T02:36:34.802Z,0.80
2022-09-30T02:39:03.723Z,0.30
2022-09-30T02:41:30.216Z,0.70
2022-09-30T02:43:56.996Z,7.97
2022-09-30T02:46:34.834Z,3.47
2022-09-30T02:49:17.426Z,4.25
2022-09-30T02:51:52.558Z,7.30
2022-09-30T02:54:24.541Z,4.75
2022-09-30T02:57:16.044Z,11.20
2022-09-30T02:59:45.606Z,12.48
2022-09-30T03:02:12.843Z,13.70
2022-09-30T03:04:39.729Z,16.65
2022-09-30T03:07:06.175Z,14.25
2022-09-30T03:09:34.744Z,16.73
2022-09-30T03:12:25.986Z,17.77
2022-09-30T03:15:04.492Z,18.65
2022-09-30T03:17:50.710Z,18.77
2022-09-30T03:20:39.439Z,16.42
2022-09-30T03:23:44.876Z,15.23
2022-09-30T03:26:18.551Z,19.95
2022-09-30T03:29:11.003Z,16.00
2022-09-30T03:31:55.079Z,16.23
2022-09-30T03:34:38.686Z,17.88
2022-09-30T03:37:20.610Z,16.97
2022-09-30T03:39:56.314Z,15.43
2022-09-30T03:42:29.038Z,14.00
2022-09-30T03:45:16.630Z,15.63
2022-09-30T03:47:45.134Z,16.52
2022-09-30T03:50:13.431Z,12.98
2022-09-30T03:52:39.868Z,11.55
2022-09-30T03:55:08.509Z,12.20
2022-09-30T03:57:35.043Z,12.25
2022-09-30T04:00:01.743Z,13.23
2022-09-30T04:02:28.293Z,14.63
2022-09-30T04:04:55.153Z,11.52
2022-09-30T04:07:21.584Z,12.93
2022-09-30T04:09:48.089Z,14.10
2022-09-30T04:12:14.554Z,12.90
2022-09-30T04:14:41.074Z,15.63
2022-09-30T04:17:07.509Z,8.82
2022-09-30T04:19:40.010Z,11.18
2022-09-30T04:22:07.427Z,11.70
2022-09-30T04:24:34.064Z,9.48
2022-09-30T04:27:00.910Z,9.15
2022-09-30T04:29:27.509Z,8.05
2022-09-30T04:31:54.256Z,7.05
2022-09-30T04:34:20.721Z,6.20
2022-09-30T04:36:47.497Z,6.10
2022-09-30T04:39:13.934Z,8.25
2022-09-30T04:41:40.794Z,6.50
2022-09-30T04:44:07.487Z,7.45
2022-09-30T04:46:36.540Z,7.40
2022-09-30T04:49:08.505Z,7.57
2022-09-30T04:51:36.212Z,5.75
2022-09-30T04:54:02.937Z,7.82
2022-09-30T04:56:29.392Z,6.68
2022-09-30T04:58:55.883Z,4.95
2022-09-30T05:01:22.502Z,4.68
2022-09-30T05:03:49.257Z,5.93
2022-09-30T05:06:15.830Z,5.32
2022-09-30T05:08:46.168Z,4.72
2022-09-30T05:11:17.832Z,6.20
2022-09-30T05:13:44.326Z,6.03
2022-09-30T05:16:11.200Z,3.22
2022-09-30T05:18:38.160Z,3.53
2022-09-30T05:21:04.709Z,4.40
2022-09-30T05:23:31.524Z,6.25
2022-09-30T05:25:58.238Z,4.20
2022-09-30T05:28:25.859Z,4.25
2022-09-30T05:30:59.978Z,2.13
2022-09-30T05:33:28.649Z,5.13
2022-09-30T05:35:55.371Z,4.43
2022-09-30T05:38:21.824Z,4.82
2022-09-30T05:40:48.317Z,5.70
2022-09-30T05:43:15.035Z,4.43
2022-09-30T05:45:41.528Z,3.10
2022-09-30T05:48:08.027Z,5.72
2022-09-30T05:50:34.716Z,4.03
2022-09-30T05:53:01.206Z,3.50
2022-09-30T05:55:27.653Z,6.18
2022-09-30T05:57:54.145Z,3.35
2022-09-30T06:00:20.647Z,3.22
2022-09-30T06:02:51.358Z,4.07
2022-09-30T06:05:18.454Z,5.18
2022-09-30T06:07:44.920Z,7.40
2022-09-30T06:10:12.334Z,3.25
2022-09-30T06:12:39.372Z,3.85
2022-09-30T06:15:06.381Z,3.00
2022-09-30T06:17:33.180Z,3.35
2022-09-30T06:20:00.533Z,3.72
2022-09-30T06:22:27.111Z,2.90
2022-09-30T06:24:55.337Z,5.05
2022-09-30T06:27:22.076Z,2.75
2022-09-30T06:29:49.319Z,2.08
2022-09-30T06:32:16.777Z,3.85
2022-09-30T06:34:43.592Z,5.70
2022-09-30T06:37:11.416Z,3.50
2022-09-30T06:39:37.902Z,1.58
2022-09-30T06:42:04.640Z,3.80
2022-09-30T06:44:31.407Z,4.20
2022-09-30T06:47:00.197Z,4.95
2022-09-30T06:49:30.016Z,5.15
2022-09-30T06:51:57.449Z,4.65
2022-09-30T06:54:23.955Z,4.80
2022-09-30T06:56:53.306Z,2.65
2022-09-30T06:59:19.816Z,4.82
2022-09-30T07:01:46.624Z,2.47
2022-09-30T07:04:13.191Z,3.53
2022-09-30T07:06:40.127Z,2.20
2022-09-30T07:09:06.917Z,3.03
2022-09-30T07:11:33.479Z,4.63
2022-09-30T07:14:00.189Z,3.63
2022-09-30T07:16:26.679Z,1.63
2022-09-30T07:18:54.273Z,4.18
2022-09-30T07:21:20.674Z,2.72
2022-09-30T07:23:50.889Z,1.88
2022-09-30T07:26:18.471Z,6.30
2022-09-30T07:28:45.145Z,2.30
2022-09-30T07:31:31.815Z,1.75
2022-09-30T07:33:59.795Z,3.45
2022-09-30T07:36:33.113Z,2.65
2022-09-30T07:39:06.142Z,2.92
2022-09-30T07:41:34.490Z,3.50
2022-09-30T07:44:01.434Z,4.25
2022-09-30T07:46:29.902Z,3.70
2022-09-30T07:48:59.204Z,9.07
2022-09-30T07:51:27.681Z,6.38
2022-09-30T07:53:55.826Z,3.90
2022-09-30T07:56:22.900Z,2.28
2022-09-30T07:58:49.614Z,2.85
2022-09-30T08:01:16.724Z,2.70
2022-09-30T08:03:44.525Z,2.33
2022-09-30T08:06:15.839Z,1.70
2022-09-30T08:08:43.896Z,2.35
2022-09-30T08:11:11.127Z,2.67
2022-09-30T08:13:37.805Z,2.25
2022-09-30T08:16:04.455Z,2.58
2022-09-30T08:18:31.031Z,3.90
2022-09-30T08:20:57.607Z,4.53
2022-09-30T08:23:24.055Z,3.15
2022-09-30T08:25:50.498Z,3.80
2022-09-30T08:28:18.293Z,5.68
2022-09-30T08:30:44.808Z,3.97
2022-09-30T08:33:11.305Z,4.78
2022-09-30T08:35:37.754Z,1.92
2022-09-30T08:38:04.215Z,2.35
2022-09-30T08:40:32.027Z,5.00
2022-09-30T08:43:08.462Z,2.60
2022-09-30T08:45:59.721Z,4.47
2022-09-30T08:48:45.077Z,1.88
2022-09-30T08:51:27.673Z,3.13
2022-09-30T08:53:54.129Z,3.30
2022-09-30T08:56:24.851Z,4.18
2022-09-30T08:58:53.012Z,5.90
2022-09-30T09:01:21.130Z,4.32
2022-09-30T09:03:47.969Z,4.00
2022-09-30T09:06:26.319Z,3.25
2022-09-30T09:09:09.968Z,3.72
2022-09-30T09:11:58.083Z,2.72
2022-09-30T09:14:44.705Z,3.22
2022-09-30T09:17:26.320Z,2.50
2022-09-30T09:20:18.522Z,2.58
2022-09-30T09:22:45.850Z,8.32
2022-09-30T09:25:17.335Z,3.90
2022-09-30T09:28:13.782Z,2.53
2022-09-30T09:30:46.171Z,3.92
2022-09-30T09:33:25.670Z,5.53
2022-09-30T09:35:58.200Z,3.97
2022-09-30T09:38:36.010Z,2.35
2022-09-30T09:41:15.177Z,2.15
2022-09-30T09:43:53.631Z,2.35
2022-09-30T09:46:41.674Z,1.85
2022-09-30T09:49:13.860Z,1.85
2022-09-30T09:51:43.033Z,1.10
2022-09-30T09:54:09.961Z,2.53
2022-09-30T09:56:37.740Z,2.35
2022-09-30T09:59:15.287Z,3.72
2022-09-30T10:01:48.096Z,2.35
2022-09-30T10:04:19.096Z,3.22
2022-09-30T10:07:01.242Z,5.13
2022-09-30T10:09:34.975Z,2.10
2022-09-30T10:12:07.474Z,4.05
2022-09-30T10:14:34.893Z,3.90
2022-09-30T10:17:02.167Z,2.85
2022-09-30T10:19:30.620Z,2.80
2022-09-30T10:22:09.201Z,2.33
2022-09-30T10:24:36.802Z,3.00
2022-09-30T10:27:03.481Z,2.33
2022-09-30T10:29:34.396Z,2.38
2022-09-30T10:32:06.859Z,2.72
2022-09-30T10:34:37.903Z,1.83
2022-09-30T10:37:10.051Z,2.47
2022-09-30T10:39:37.479Z,1.90
2022-09-30T10:42:23.643Z,6.78
2022-09-30T10:44:56.787Z,3.63
2022-09-30T10:47:26.666Z,1.50
2022-09-30T10:50:05.454Z,3.03
2022-09-30T10:52:33.618Z,2.55
2022-09-30T10:55:13.268Z,2.75
2022-09-30T10:57:42.274Z,1.70
2022-09-30T11:00:13.880Z,3.15
2022-09-30T11:02:58.733Z,4.10
2022-09-30T11:05:31.186Z,2.83
2022-09-30T11:08:03.766Z,2.75
2022-09-30T11:10:44.744Z,1.42
2022-09-30T11:13:22.350Z,2.20
2022-09-30T11:15:57.047Z,2.60
2022-09-30T11:18:31.484Z,1.40
2022-09-30T11:21:01.324Z,3.75
2022-09-30T11:23:29.361Z,2.53
2022-09-30T11:26:16.837Z,2.42
2022-09-30T11:28:47.106Z,2.65
2022-09-30T11:31:22.621Z,1.98
2022-09-30T11:34:05.535Z,1.75
2022-09-30T11:36:51.751Z,2.50
2022-09-30T11:39:39.953Z,5.50
2022-09-30T11:42:19.240Z,5.20
2022-09-30T11:44:45.769Z,3.22
2022-09-30T11:47:12.118Z,3.63
2022-09-30T11:49:59.824Z,2.70
2022-09-30T11:52:56.974Z,4.30
2022-09-30T11:55:41.538Z,2.58
2022-09-30T11:58:39.798Z,1.90
2022-09-30T12:01:22.196Z,2.80
2022-09-30T12:04:10.112Z,2.22
2022-09-30T12:06:39.868Z,2.35
2022-09-30T12:09:34.364Z,1.98
2022-09-30T12:12:03.479Z,2.65
2022-09-30T12:14:56.841Z,3.38
2022-09-30T12:17:37.799Z,2.95
2022-09-30T12:20:27.005Z,2.22
2022-09-30T12:23:05.739Z,2.67
2022-09-30T12:25:33.983Z,3.03
2022-09-30T12:28:41.694Z,2.63
2022-09-30T12:31:27.968Z,2.67
2022-09-30T12:34:00.473Z,3.30
2022-09-30T12:36:39.990Z,2.28
2022-09-30T12:39:40.489Z,2.15
2022-09-30T12:42:19.421Z,2.85
2022-09-30T12:44:59.336Z,4.30
2022-09-30T12:47:50.529Z,4.10
2022-09-30T12:50:19.349Z,2.25
2022-09-30T12:52:45.790Z,3.78
2022-09-30T12:55:22.778Z,1.98
2022-09-30T12:57:49.231Z,1.55
2022-09-30T13:00:20.653Z,3.45
2022-09-30T13:02:58.185Z,5.45
2022-09-30T13:05:27.594Z,2.45
2022-09-30T13:08:06.118Z,3.90
2022-09-30T13:10:33.967Z,3.83
2022-09-30T13:13:20.021Z,2.92
2022-09-30T13:15:46.610Z,1.80
2022-09-30T13:18:27.986Z,3.88
2022-09-30T13:20:59.047Z,1.70
2022-09-30T13:23:37.575Z,2.95
2022-09-30T13:26:21.039Z,1.77
2022-09-30T13:28:47.490Z,2.53
2022-09-30T13:31:15.933Z,1.83
2022-09-30T13:33:44.410Z,3.58
2022-09-30T13:36:18.791Z,2.60
2022-09-30T13:38:45.240Z,2.33
2022-09-30T13:41:21.586Z,3.03
2022-09-30T13:44:03.444Z,4.93
2022-09-30T13:46:35.566Z,3.67
2022-09-30T13:49:42.690Z,4.18
2022-09-30T13:52:22.221Z,4.82
2022-09-30T13:54:48.715Z,3.08
2022-09-30T13:57:26.220Z,4.05
2022-09-30T14:00:00.096Z,3.65
2022-09-30T14:02:58.053Z,2.95
2022-09-30T14:05:35.172Z,3.00
2022-09-30T14:08:20.551Z,3.03
2022-09-30T14:11:02.372Z,1.92
2022-09-30T14:13:39.711Z,2.35
2022-09-30T14:16:12.133Z,3.67
2022-09-30T14:19:03.455Z,2.17
2022-09-30T14:21:38.412Z,1.80
2022-09-30T14:24:14.987Z,1.88
2022-09-30T14:26:53.519Z,2.33
2022-09-30T14:29:32.348Z,2.22
2022-09-30T14:31:59.872Z,3.13
2022-09-30T14:34:27.304Z,3.03
2022-09-30T14:36:53.750Z,1.80
2022-09-30T14:39:23.376Z,2.67
2022-09-30T14:41:56.510Z,3.20
2022-09-30T14:44:23.647Z,1.63
2022-09-30T14:46:50.119Z,1.63
2022-09-30T14:49:22.502Z,1.15
2022-09-30T14:51:49.363Z,0.80
2022-09-30T14:54:20.971Z,1.90
2022-09-30T14:56:48.243Z,1.42
2022-09-30T14:59:26.963Z,1.65
2022-09-30T15:02:23.514Z,1.48
2022-09-30T15:04:56.065Z,1.60
2022-09-30T15:07:24.544Z,3.05
2022-09-30T15:09:52.588Z,2.95
2022-09-30T15:12:22.884Z,0.98
2022-09-30T15:15:24.257Z,2.03
2022-09-30T15:17:55.395Z,1.90
2022-09-30T15:20:31.165Z,2.55
2022-09-30T15:23:00.968Z,2.22
2022-09-30T15:25:27.522Z,1.20
2022-09-30T15:27:55.367Z,2.90
2022-09-30T15:30:24.491Z,2.28
2022-09-30T15:32:57.616Z,1.80
2022-09-30T15:35:24.085Z,1.70
2022-09-30T15:37:51.117Z,5.90
2022-09-30T15:40:41.366Z,1.67
2022-09-30T15:43:08.999Z,1.38
2022-09-30T15:45:45.299Z,1.95
2022-09-30T15:48:33.069Z,1.60
2022-09-30T15:51:01.126Z,1.77
2022-09-30T15:53:36.719Z,6.07
2022-09-30T15:56:28.573Z,3.80
2022-09-30T15:58:59.360Z,3.03
2022-09-30T16:01:38.087Z,2.75
2022-09-30T16:04:16.647Z,5.47
2022-09-30T16:07:08.535Z,8.50
2022-09-30T16:09:36.088Z,23.52
2022-09-30T16:12:05.496Z,29.25
2022-09-30T16:14:33.908Z,19.30
2022-09-30T16:17:02.062Z,18.52
2022-09-30T16:19:29.142Z,17.55
2022-09-30T16:21:56.370Z,11.48
2022-09-30T16:24:28.943Z,9.40
2022-09-30T16:26:59.770Z,11.60
2022-09-30T16:29:26.731Z,6.78
2022-09-30T16:31:56.681Z,7.30
2022-09-30T16:34:29.584Z,7.47
2022-09-30T16:37:15.339Z,9.85
2022-09-30T16:39:41.785Z,5.88
2022-09-30T16:42:12.649Z,6.78
2022-09-30T16:44:39.164Z,5.68
2022-09-30T16:47:07.139Z,2.95
2022-09-30T16:49:34.963Z,3.25
2022-09-30T16:52:01.517Z,4.13
2022-09-30T16:54:35.893Z,3.63
2022-09-30T16:57:03.951Z,6.30
2022-09-30T16:59:32.534Z,7.20
2022-09-30T17:02:00.587Z,4.78
2022-09-30T17:04:27.904Z,7.78
2022-09-30T17:06:56.796Z,4.38
2022-09-30T17:09:23.244Z,6.45
2022-09-30T17:11:53.331Z,1.92
2022-09-30T17:14:19.811Z,1.63
2022-09-30T17:16:46.624Z,4.40
2022-09-30T17:19:13.396Z,2.40
2022-09-30T17:21:39.868Z,3.10
2022-09-30T17:24:06.322Z,3.00
2022-09-30T17:26:33.092Z,1.40
2022-09-30T17:29:09.194Z,5.40
2022-09-30T17:31:46.815Z,2.75
2022-09-30T17:34:13.435Z,2.75
2022-09-30T17:36:40.326Z,2.70
2022-09-30T17:39:07.577Z,3.83
2022-09-30T17:41:53.154Z,4.43
2022-09-30T17:44:19.677Z,4.38
2022-09-30T17:46:46.177Z,2.78
2022-09-30T17:49:12.927Z,3.22
2022-09-30T17:51:39.487Z,6.97
2022-09-30T17:54:06.673Z,3.22
2022-09-30T17:56:33.274Z,5.55
2022-09-30T17:59:01.927Z,7.70
2022-09-30T18:01:28.540Z,2.72
2022-09-30T18:03:59.360Z,3.35
2022-09-30T18:06:25.888Z,5.70
2022-09-30T18:08:55.923Z,3.40
2022-09-30T18:11:23.279Z,3.35
2022-09-30T18:13:57.672Z,1.95
2022-09-30T18:16:30.451Z,2.55
2022-09-30T18:18:58.305Z,10.45
2022-09-30T18:21:25.344Z,2.58
2022-09-30T18:23:52.277Z,4.68
2022-09-30T18:26:18.929Z,2.42
2022-09-30T18:28:45.643Z,2.53
2022-09-30T18:31:18.098Z,3.13
2022-09-30T18:33:46.434Z,4.47
2022-09-30T18:36:16.065Z,1.30
2022-09-30T18:38:42.516Z,2.97
2022-09-30T18:41:08.952Z,5.30
2022-09-30T18:43:36.114Z,3.75
2022-09-30T18:46:02.607Z,2.65
2022-09-30T18:48:29.089Z,3.20
2022-09-30T18:50:55.594Z,2.88
2022-09-30T18:53:22.114Z,3.72
2022-09-30T18:55:48.782Z,1.48
2022-09-30T18:58:18.000Z,3.00
2022-09-30T19:00:44.590Z,1.15
2022-09-30T19:03:13.914Z,2.60
2022-09-30T19:05:41.343Z,1.27
2022-09-30T19:08:09.225Z,1.20
2022-09-30T19:10:39.990Z,1.45
2022-09-30T19:13:06.438Z,1.48
2022-09-30T19:15:32.908Z,3.30
2022-09-30T19:17:59.879Z,1.40
2022-09-30T19:20:26.843Z,1.02
2022-09-30T19:22:53.557Z,2.25
2022-09-30T19:25:20.070Z,3.63
2022-09-30T19:27:48.257Z,1.30
2022-09-30T19:30:15.019Z,1.65
2022-09-30T19:32:41.514Z,2.53
2022-09-30T19:35:11.946Z,2.25
2022-09-30T19:37:43.558Z,0.93
2022-09-30T19:40:20.967Z,2.03
2022-09-30T19:42:49.573Z,1.52
2022-09-30T19:45:16.427Z,4.80
2022-09-30T19:47:43.189Z,0.80
2022-09-30T19:50:09.828Z,1.25
2022-09-30T19:52:40.768Z,1.30
2022-09-30T19:55:16.583Z,1.10
2022-09-30T19:57:43.493Z,2.13
2022-09-30T20:00:11.544Z,1.58
2022-09-30T20:02:38.109Z,2.67
2022-09-30T20:05:05.523Z,5.45
2022-09-30T20:07:32.039Z,4.55
2022-09-30T20:09:58.523Z,4.20
2022-09-30T20:12:25.330Z,5.32
2022-09-30T20:15:11.039Z,6.30
2022-09-30T20:17:37.581Z,4.50
2022-09-30T20:20:22.658Z,5.72
2022-09-30T20:22:49.106Z,5.95
2022-09-30T20:25:16.116Z,2.83
2022-09-30T20:27:51.938Z,4.22
2022-09-30T20:30:18.866Z,2.58
2022-09-30T20:32:45.329Z,3.05
2022-09-30T20:35:11.858Z,3.15
2022-09-30T20:37:40.657Z,3.03
2022-09-30T20:40:09.144Z,2.53
2022-09-30T20:42:37.804Z,2.63
2022-09-30T20:45:10.644Z,3.13
2022-09-30T20:47:40.373Z,3.65
2022-09-30T20:50:07.186Z,3.25
2022-09-30T20:52:33.695Z,2.45
2022-09-30T20:55:00.321Z,3.28
2022-09-30T20:57:30.015Z,4.10
2022-09-30T20:59:57.387Z,2.13
2022-09-30T21:02:27.881Z,2.65
2022-09-30T21:04:55.411Z,2.75
2022-09-30T21:07:21.883Z,2.83
2022-09-30T21:09:48.322Z,17.35
2022-09-30T21:12:16.789Z,21.20
2022-09-30T21:14:43.518Z,26.20
2022-09-30T21:17:10.036Z,22.27
2022-09-30T21:19:36.474Z,21.02
2022-09-30T21:22:02.939Z,20.60
2022-09-30T21:24:29.880Z,21.35
2022-09-30T21:26:56.332Z,13.98
2022-09-30T21:29:22.991Z,14.02
2022-09-30T21:31:49.511Z,13.73
2022-09-30T21:34:15.991Z,14.25
2022-09-30T21:36:42.485Z,11.57
2022-09-30T21:39:08.916Z,16.65
2022-09-30T21:41:35.860Z,11.43
2022-09-30T21:44:04.261Z,12.95
2022-09-30T21:46:30.790Z,10.68
2022-09-30T21:49:07.626Z,9.10
2022-09-30T21:51:35.321Z,11.07
2022-09-30T21:54:02.808Z,10.23
2022-09-30T21:56:29.309Z,10.63
2022-09-30T21:58:56.055Z,10.30
2022-09-30T22:01:22.721Z,9.13
2022-09-30T22:03:49.229Z,9.55
2022-09-30T22:06:19.156Z,9.68
2022-09-30T22:08:45.635Z,8.38
2022-09-30T22:11:16.955Z,9.18
2022-09-30T22:13:44.367Z,8.30
2022-09-30T22:16:11.401Z,5.78
2022-09-30T22:18:38.243Z,7.85
2022-09-30T22:21:09.255Z,6.63
2022-09-30T22:23:35.705Z,6.90
2022-09-30T22:26:22.753Z,7.10
2022-09-30T22:28:58.409Z,6.28
2022-09-30T22:31:26.421Z,6.60
2022-09-30T22:34:13.259Z,7.47
2022-09-30T22:36:58.555Z,6.30
2022-09-30T22:39:25.088Z,5.78
2022-09-30T22:41:54.854Z,5.88
2022-09-30T22:44:22.676Z,6.20
2022-09-30T22:46:49.136Z,5.75
2022-09-30T22:49:15.620Z,5.20
2022-09-30T22:51:42.090Z,4.80
2022-09-30T22:54:08.575Z,5.55
2022-09-30T22:56:35.061Z,7.63
2022-09-30T22:59:01.524Z,5.88
2022-09-30T23:01:31.713Z,5.35
2022-09-30T23:03:59.020Z,5.78
2022-09-30T23:06:25.643Z,4.78
2022-09-30T23:08:52.451Z,5.18
2022-09-30T23:11:19.013Z,3.90
2022-09-30T23:13:49.470Z,5.30
2022-09-30T23:16:16.203Z,5.07
2022-09-30T23:18:42.951Z,4.03
2022-09-30T23:21:10.925Z,3.53
2022-09-30T23:23:37.970Z,5.47
2022-09-30T23:26:10.319Z,3.58
2022-09-30T23:28:36.768Z,4.75
2022-09-30T23:31:05.053Z,3.75
2022-09-30T23:33:31.758Z,3.92
2022-09-30T23:36:01.480Z,4.75
2022-09-30T23:38:28.228Z,3.30
2022-09-30T23:41:00.528Z,2.70
2022-09-30T23:43:34.096Z,3.45
2022-09-30T23:46:01.152Z,3.78
2022-09-30T23:48:27.737Z,2.88
2022-09-30T23:50:54.242Z,3.67
2022-09-30T23:53:21.621Z,2.33
2022-09-30T23:55:57.503Z,2.58
2022-09-30T23:58:24.482Z,2.88
